Accueil
METAR-TAF:

METAR-TAF

Aéroports :

Saint-Moritz, Suisse

Aérodrome de Samedan-Engadin

latitude: 46-32-03N, longitude: 9-53-03E, altitude: 1707 m

Observation

Le bulletin a été fait il y a 27 minutes, à 00:20 UTC
Vent 2 kt de direction variable
Température 4°C
Humidité 81%
Pression 1021 hPa
Visibilité 10 km ou plus
Ciel couvert à une hauteur de 5000 ft

METAR: LSZS 240020Z AUTO VRB02KT 9999 OVC050 04/01 Q1021

Heure: 02:47 (00:47 UTC)

Prévision

Le bulletin a été fait il y a 10 heures et 22 minutes, à 14:25 UTC
Prévision valable du 23 à 15 UTC au 23 à 24 UTC
Vent 8 kt de sud-ouest
Visibilité 10 km ou plus
Nuages épars à une hauteur de 6500 ft
Probabilité 40% :
Temporairement
du 23 à 17 UTC au 23 à 24 UTC
Nuages épars à une hauteur de 4000 ft, Cumulus congestus.
averses de pluie

TAF: LSZS 231425Z 2315/2324 22008KT 9999 SCT065 TX17/2315Z PROB40 TEMPO 2317/2324 SHRA SCT040TCU

Observations et prévisions météorologiques de plus de 4000 aéroports (messages METAR et TAF).

Les stations disponibles sont représentées par des disques jaunes et rouges sur la carte.

Passer la souris dessus pour voir le nom de la station.

Cliquer dessus pour voir les observations et prévisions météorologiques.

Pour changer de carte: cliquez sur les boutons verts avec une croix noire pour zoomer, sur le bouton vert avec un tiret pour effectuer un zoom arrière, ou sur les flèches vertes pour les cartes adjacentes.


METAR-TAF: